createdAt,value
2018-06-09T00:00:57.464Z,121.10
2018-06-09T00:01:57.464Z,114.30
2018-06-09T00:02:57.403Z,106.10
2018-06-09T00:03:57.371Z,102.10
2018-06-09T00:04:57.332Z,114.80
2018-06-09T00:05:57.289Z,110.90
2018-06-09T00:06:57.310Z,116.10
2018-06-09T00:07:57.252Z,117.00
2018-06-09T00:08:57.210Z,111.20
2018-06-09T00:09:57.136Z,127.90
2018-06-09T00:10:57.149Z,121.40
2018-06-09T00:11:57.099Z,119.70
2018-06-09T00:12:57.082Z,116.00
2018-06-09T00:13:57.025Z,112.80
2018-06-09T00:14:56.973Z,118.20
2018-06-09T00:15:56.924Z,115.20
2018-06-09T00:16:56.904Z,109.30
2018-06-09T00:17:56.876Z,110.20
2018-06-09T00:18:56.815Z,116.00
2018-06-09T00:19:56.815Z,107.50
2018-06-09T00:20:56.767Z,112.30
2018-06-09T00:22:07.810Z,113.30
2018-06-09T00:22:56.666Z,115.20
2018-06-09T00:23:56.660Z,112.50
2018-06-09T00:24:56.596Z,108.70
2018-06-09T00:25:56.556Z,112.90
2018-06-09T00:26:56.526Z,121.60
2018-06-09T00:27:56.483Z,124.40
2018-06-09T00:28:56.482Z,116.70
2018-06-09T00:29:56.415Z,121.20
2018-06-09T00:30:56.396Z,131.10
2018-06-09T00:31:56.342Z,133.40
2018-06-09T00:32:56.306Z,121.80
2018-06-09T00:33:56.292Z,131.40
2018-06-09T00:34:56.272Z,135.70
2018-06-09T00:35:56.230Z,137.60
2018-06-09T00:36:56.151Z,128.00
2018-06-09T00:37:56.123Z,125.70
2018-06-09T00:38:56.126Z,129.40
2018-06-09T00:39:56.045Z,126.70
2018-06-09T00:40:56.052Z,132.50
2018-06-09T00:41:56.013Z,130.80
2018-06-09T00:42:55.945Z,128.70
2018-06-09T00:43:55.928Z,128.50
2018-06-09T00:44:55.924Z,132.60
2018-06-09T00:45:55.839Z,133.40
2018-06-09T00:46:55.826Z,138.80
2018-06-09T00:47:55.765Z,137.10
2018-06-09T00:48:55.753Z,135.40
2018-06-09T00:49:55.709Z,137.60
2018-06-09T00:50:55.680Z,139.60
2018-06-09T00:51:55.624Z,131.80
2018-06-09T00:52:55.613Z,133.50
2018-06-09T00:53:55.585Z,135.60
2018-06-09T00:54:55.507Z,135.00
2018-06-09T00:55:55.520Z,135.70
2018-06-09T00:56:55.470Z,140.20
2018-06-09T00:57:55.395Z,139.70
2018-06-09T00:58:55.397Z,144.10
2018-06-09T00:59:55.324Z,138.70
2018-06-09T01:00:55.306Z,137.80
2018-06-09T01:01:55.252Z,135.90
2018-06-09T01:02:55.213Z,137.70
2018-06-09T01:03:55.239Z,137.00
2018-06-09T01:04:55.147Z,140.30
2018-06-09T01:05:55.105Z,134.60
2018-06-09T01:06:55.110Z,137.20
2018-06-09T01:07:55.072Z,139.20
2018-06-09T01:08:55.031Z,135.90
2018-06-09T01:09:54.963Z,136.40
2018-06-09T01:10:54.934Z,145.60
2018-06-09T01:11:54.901Z,140.70
2018-06-09T01:12:54.855Z,138.70
2018-06-09T01:13:54.846Z,143.70
2018-06-09T01:14:54.798Z,146.10
2018-06-09T01:15:54.756Z,148.00
2018-06-09T01:16:54.711Z,144.80
2018-06-09T01:17:54.702Z,141.70
2018-06-09T01:18:54.670Z,140.70
2018-06-09T01:19:54.589Z,147.70
2018-06-09T01:20:54.594Z,145.20
2018-06-09T01:21:54.507Z,139.50
2018-06-09T01:22:54.526Z,139.50
2018-06-09T01:23:54.481Z,149.50
2018-06-09T01:24:54.437Z,145.90
2018-06-09T01:25:54.385Z,147.20
2018-06-09T01:26:54.382Z,139.20
2018-06-09T01:27:54.314Z,135.60
2018-06-09T01:28:54.320Z,141.60
2018-06-09T01:29:54.242Z,140.30
2018-06-09T01:30:54.184Z,137.40
2018-06-09T01:31:54.162Z,140.20
2018-06-09T01:32:54.107Z,143.30
2018-06-09T01:33:54.099Z,139.10
2018-06-09T01:34:54.033Z,141.20
2018-06-09T01:35:54.024Z,139.60
2018-06-09T01:36:53.975Z,138.20
2018-06-09T01:37:53.953Z,135.20
2018-06-09T01:38:53.897Z,139.50
2018-06-09T01:39:53.880Z,136.00
2018-06-09T01:40:53.846Z,135.70
2018-06-09T01:41:53.788Z,134.60
2018-06-09T01:42:53.762Z,133.00
2018-06-09T01:43:53.729Z,134.50
2018-06-09T01:44:53.711Z,131.30
2018-06-09T01:45:53.636Z,127.80
2018-06-09T01:46:53.597Z,127.30
2018-06-09T01:47:53.564Z,131.20
2018-06-09T01:48:53.535Z,129.60
2018-06-09T01:49:53.519Z,133.40
2018-06-09T01:50:53.468Z,135.00
2018-06-09T01:51:53.414Z,135.10
2018-06-09T01:52:53.381Z,131.30
2018-06-09T01:53:53.339Z,136.80
2018-06-09T01:54:53.324Z,138.70
2018-06-09T01:56:01.401Z,137.00
2018-06-09T01:56:53.216Z,132.90
2018-06-09T01:57:53.225Z,135.20
2018-06-09T01:58:53.159Z,140.70
2018-06-09T01:59:53.142Z,135.10
2018-06-09T02:00:53.083Z,134.40
2018-06-09T02:01:53.032Z,136.60
2018-06-09T02:02:53.007Z,130.70
2018-06-09T02:03:52.982Z,136.90
2018-06-09T02:04:52.971Z,138.90
2018-06-09T02:05:52.953Z,135.70
2018-06-09T02:06:52.881Z,129.10
2018-06-09T02:07:52.839Z,129.20
2018-06-09T02:08:52.810Z,131.10
2018-06-09T02:09:52.739Z,127.60
2018-06-09T02:10:52.742Z,125.20
2018-06-09T02:11:52.672Z,124.40
2018-06-09T02:12:52.645Z,127.70
2018-06-09T02:13:52.608Z,123.40
2018-06-09T02:14:52.566Z,120.90
2018-06-09T02:15:52.555Z,120.20
2018-06-09T02:16:52.489Z,132.00
2018-06-09T02:17:52.482Z,135.50
2018-06-09T02:18:52.428Z,125.60
2018-06-09T02:19:52.378Z,129.50
2018-06-09T02:20:52.365Z,120.70
2018-06-09T02:21:52.317Z,129.90
2018-06-09T02:22:52.276Z,126.50
2018-06-09T02:23:52.242Z,125.90
2018-06-09T02:24:52.209Z,131.20
2018-06-09T02:25:52.195Z,126.70
2018-06-09T02:26:52.150Z,130.70
2018-06-09T02:27:52.109Z,131.10
2018-06-09T02:28:52.055Z,129.70
2018-06-09T02:29:52.025Z,131.70
2018-06-09T02:30:51.980Z,131.50
2018-06-09T02:31:51.978Z,135.80
2018-06-09T02:32:51.892Z,133.90
2018-06-09T02:33:51.865Z,135.00
2018-06-09T02:34:51.842Z,135.10
2018-06-09T02:35:51.800Z,136.40
2018-06-09T02:36:51.804Z,135.20
2018-06-09T02:37:51.708Z,130.90
2018-06-09T02:38:51.691Z,129.50
2018-06-09T02:39:51.635Z,127.70
2018-06-09T02:40:51.611Z,128.80
2018-06-09T02:41:51.617Z,128.00
2018-06-09T02:42:51.545Z,125.10
2018-06-09T02:43:51.487Z,127.20
2018-06-09T02:44:51.459Z,111.30
2018-06-09T02:45:51.448Z,123.40
2018-06-09T02:46:51.416Z,140.20
2018-06-09T02:47:51.345Z,136.60
2018-06-09T02:48:51.308Z,137.00
2018-06-09T02:49:51.265Z,141.30
2018-06-09T02:50:51.221Z,128.50
2018-06-09T02:51:51.229Z,127.80
2018-06-09T02:52:51.211Z,131.40
2018-06-09T02:53:51.136Z,134.70
2018-06-09T02:54:51.115Z,127.00
2018-06-09T02:55:51.088Z,135.60
2018-06-09T02:56:51.051Z,148.40
2018-06-09T02:57:50.982Z,134.60
2018-06-09T02:58:50.957Z,146.60
2018-06-09T02:59:50.901Z,135.40
2018-06-09T03:00:50.868Z,129.80
2018-06-09T03:01:50.860Z,131.50
2018-06-09T03:02:50.790Z,132.80
2018-06-09T03:03:50.766Z,121.70
2018-06-09T03:04:50.730Z,121.40
2018-06-09T03:05:50.688Z,120.50
2018-06-09T03:06:50.677Z,133.90
2018-06-09T03:07:50.673Z,124.90
2018-06-09T03:08:50.589Z,130.00
2018-06-09T03:09:50.526Z,123.60
2018-06-09T03:10:50.484Z,127.70
2018-06-09T03:11:50.481Z,128.30
2018-06-09T03:12:50.426Z,129.50
2018-06-09T03:13:50.384Z,132.80
2018-06-09T03:14:50.359Z,126.70
2018-06-09T03:15:50.305Z,121.40
2018-06-09T03:16:50.279Z,107.10
2018-06-09T03:17:50.287Z,111.80
2018-06-09T03:18:50.211Z,114.70
2018-06-09T03:19:50.159Z,142.10
2018-06-09T03:20:50.125Z,119.00
2018-06-09T03:21:50.110Z,117.10
2018-06-09T03:22:50.074Z,122.80
2018-06-09T03:23:50.006Z,133.90
2018-06-09T03:24:49.978Z,126.30
2018-06-09T03:25:49.940Z,131.50
2018-06-09T03:26:49.923Z,133.40
2018-06-09T03:27:49.870Z,122.30
2018-06-09T03:28:49.848Z,128.90
2018-06-09T03:29:49.795Z,127.80
2018-06-09T03:30:49.751Z,130.20
2018-06-09T03:31:49.720Z,131.60
2018-06-09T03:32:49.674Z,115.10
2018-06-09T03:33:49.672Z,119.10
2018-06-09T03:34:49.601Z,134.50
2018-06-09T03:35:49.563Z,120.00
2018-06-09T03:36:49.529Z,131.00
2018-06-09T03:37:49.508Z,135.80
2018-06-09T03:38:49.482Z,145.50
2018-06-09T03:39:49.436Z,143.00
2018-06-09T03:40:49.389Z,134.00
2018-06-09T03:41:49.361Z,130.90
2018-06-09T03:42:49.313Z,138.70
2018-06-09T03:43:49.308Z,140.20
2018-06-09T03:44:49.240Z,130.60
2018-06-09T03:45:49.206Z,133.30
2018-06-09T03:46:49.173Z,136.00
2018-06-09T03:47:49.128Z,130.80
2018-06-09T03:48:49.131Z,131.70
2018-06-09T03:49:49.056Z,115.40
2018-06-09T03:50:49.076Z,110.60
2018-06-09T03:51:48.986Z,107.30
2018-06-09T03:52:48.960Z,111.40
2018-06-09T03:53:48.907Z,118.80
2018-06-09T03:54:48.891Z,114.90
2018-06-09T03:55:48.815Z,121.20
2018-06-09T03:56:48.787Z,116.60
2018-06-09T03:57:48.763Z,110.00
2018-06-09T03:58:48.731Z,110.20
2018-06-09T03:59:48.705Z,117.60
2018-06-09T04:00:48.654Z,120.80
2018-06-09T04:01:48.617Z,111.60
2018-06-09T04:02:48.591Z,113.30
2018-06-09T04:03:48.554Z,128.20
2018-06-09T04:04:48.539Z,138.20
2018-06-09T04:05:48.477Z,127.10
2018-06-09T04:06:48.405Z,128.10
2018-06-09T04:07:48.370Z,121.40
2018-06-09T04:08:48.381Z,127.60
2018-06-09T04:09:48.325Z,119.10
2018-06-09T04:10:48.271Z,121.00
2018-06-09T04:11:48.236Z,126.90
2018-06-09T04:12:48.235Z,123.70
2018-06-09T04:13:48.151Z,122.00
2018-06-09T04:14:48.154Z,117.10
2018-06-09T04:15:48.108Z,123.20
2018-06-09T04:16:48.049Z,117.70
2018-06-09T04:17:58.434Z,122.30
2018-06-09T04:18:47.960Z,119.90
2018-06-09T04:19:47.926Z,115.50
2018-06-09T04:20:47.920Z,116.60
2018-06-09T04:21:47.868Z,118.40
2018-06-09T04:22:47.824Z,115.80
2018-06-09T04:23:47.785Z,113.00
2018-06-09T04:24:47.755Z,114.90
2018-06-09T04:25:47.752Z,110.90
2018-06-09T04:26:47.670Z,109.70
2018-06-09T04:27:47.638Z,108.00
2018-06-09T04:28:47.602Z,104.00
2018-06-09T04:29:47.584Z,106.10
2018-06-09T04:30:47.559Z,105.70
2018-06-09T04:31:47.517Z,106.90
2018-06-09T04:32:47.458Z,97.50
2018-06-09T04:33:47.424Z,97.40
2018-06-09T04:34:47.412Z,97.70
2018-06-09T04:35:47.372Z,96.90
2018-06-09T04:36:47.326Z,92.80
2018-06-09T04:37:47.271Z,89.10
2018-06-09T04:38:47.241Z,97.10
2018-06-09T04:39:47.220Z,95.40
2018-06-09T04:40:55.986Z,93.80
2018-06-09T04:41:47.117Z,89.70
2018-06-09T04:42:47.081Z,89.00
2018-06-09T04:43:47.048Z,87.30
2018-06-09T04:44:47.010Z,88.00
2018-06-09T04:45:47.013Z,88.80
2018-06-09T04:46:46.985Z,91.80
2018-06-09T04:47:46.931Z,90.10
2018-06-09T04:48:46.911Z,88.50
2018-06-09T04:49:46.848Z,89.10
2018-06-09T04:50:46.807Z,85.00
2018-06-09T04:51:46.800Z,83.80
2018-06-09T04:52:46.739Z,80.30
2018-06-09T04:53:46.687Z,83.80
2018-06-09T04:54:46.680Z,83.80
2018-06-09T04:55:46.622Z,83.50
2018-06-09T04:56:46.612Z,86.80
2018-06-09T04:57:46.564Z,84.30
2018-06-09T04:58:46.522Z,80.60
2018-06-09T04:59:46.487Z,69.90
2018-06-09T05:00:46.455Z,70.90
2018-06-09T05:01:46.436Z,66.50
2018-06-09T05:02:46.395Z,58.80
2018-06-09T05:03:46.344Z,65.80
2018-06-09T05:04:46.344Z,64.90
2018-06-09T05:05:46.262Z,60.00
2018-06-09T05:06:46.264Z,56.20
2018-06-09T05:07:46.203Z,57.00
2018-06-09T05:08:46.170Z,58.20
2018-06-09T05:09:46.135Z,52.40
2018-06-09T05:10:46.075Z,54.40
2018-06-09T05:11:46.054Z,55.80
2018-06-09T05:12:46.043Z,54.20
2018-06-09T05:13:45.963Z,55.40
2018-06-09T05:14:45.958Z,52.00
2018-06-09T05:15:45.904Z,52.60
2018-06-09T05:16:45.866Z,54.10
2018-06-09T05:17:45.860Z,52.20
2018-06-09T05:18:45.806Z,54.50
2018-06-09T05:19:45.785Z,51.00
2018-06-09T05:20:45.737Z,50.70
2018-06-09T05:21:45.710Z,52.20
2018-06-09T05:22:45.687Z,49.10
2018-06-09T05:23:45.622Z,49.30
2018-06-09T05:24:45.594Z,48.70
2018-06-09T05:25:45.560Z,48.80
2018-06-09T05:26:45.538Z,49.20
2018-06-09T05:27:45.496Z,45.10
2018-06-09T05:28:45.440Z,46.70
2018-06-09T05:29:45.419Z,46.40
2018-06-09T05:30:45.377Z,44.30
2018-06-09T05:31:45.343Z,44.60
2018-06-09T05:32:45.315Z,42.80
2018-06-09T05:33:45.294Z,43.30
2018-06-09T05:34:45.234Z,42.20
2018-06-09T05:35:45.215Z,41.10
2018-06-09T05:36:45.180Z,40.40
2018-06-09T05:37:45.124Z,42.10
2018-06-09T05:38:45.110Z,42.30
2018-06-09T05:39:45.077Z,39.70
2018-06-09T05:40:45.030Z,40.40
2018-06-09T05:41:45.009Z,40.60
2018-06-09T05:42:44.969Z,40.70
2018-06-09T05:43:44.961Z,42.40
2018-06-09T05:44:44.891Z,40.80
2018-06-09T05:45:44.854Z,40.50
2018-06-09T05:46:44.841Z,41.60
2018-06-09T05:47:44.788Z,39.20
2018-06-09T05:48:44.742Z,41.20
2018-06-09T05:49:44.743Z,41.50
2018-06-09T05:50:44.696Z,41.90
2018-06-09T05:51:44.673Z,40.60
2018-06-09T05:52:44.604Z,42.10
2018-06-09T05:53:44.577Z,39.00
2018-06-09T05:54:44.568Z,39.20
2018-06-09T05:55:44.530Z,37.80
2018-06-09T05:56:44.491Z,38.70
2018-06-09T05:57:44.433Z,36.70
2018-06-09T05:58:44.415Z,35.50
2018-06-09T05:59:44.394Z,34.90
2018-06-09T06:00:44.335Z,35.80
2018-06-09T06:01:44.317Z,36.30
2018-06-09T06:02:44.277Z,36.70
2018-06-09T06:03:44.249Z,34.50
2018-06-09T06:04:44.234Z,34.90
2018-06-09T06:05:44.171Z,33.50
2018-06-09T06:06:44.167Z,33.40
2018-06-09T06:07:44.103Z,32.80
2018-06-09T06:08:44.105Z,33.40
2018-06-09T06:09:44.031Z,32.80
2018-06-09T06:10:43.994Z,33.40
2018-06-09T06:11:43.986Z,32.30
2018-06-09T06:12:43.939Z,33.10
2018-06-09T06:13:43.929Z,32.30
2018-06-09T06:14:43.892Z,32.10
2018-06-09T06:15:43.845Z,31.20
2018-06-09T06:16:43.807Z,32.30
2018-06-09T06:17:43.770Z,30.80
2018-06-09T06:18:43.806Z,29.00
2018-06-09T06:19:43.727Z,29.50
2018-06-09T06:20:43.666Z,30.40
2018-06-09T06:21:43.644Z,28.90
2018-06-09T06:22:43.625Z,28.00
2018-06-09T06:23:43.569Z,28.80
2018-06-09T06:24:43.564Z,28.80
2018-06-09T06:25:43.528Z,29.40
2018-06-09T06:26:43.502Z,28.30
2018-06-09T06:27:43.454Z,27.80
2018-06-09T06:28:43.426Z,30.30
2018-06-09T06:29:43.438Z,30.20
2018-06-09T06:30:43.340Z,29.80
2018-06-09T06:31:43.321Z,31.30
2018-06-09T06:32:43.291Z,30.40
2018-06-09T06:33:43.259Z,30.10
2018-06-09T06:34:43.230Z,31.10
2018-06-09T06:35:43.216Z,29.70
2018-06-09T06:36:43.179Z,29.40
2018-06-09T06:37:54.537Z,30.10
2018-06-09T06:38:43.090Z,29.40
2018-06-09T06:39:43.048Z,27.30
2018-06-09T06:40:43.056Z,29.00
2018-06-09T06:41:42.986Z,28.90
2018-06-09T06:42:42.967Z,29.10
2018-06-09T06:43:42.950Z,28.80
2018-06-09T06:44:42.957Z,28.50
2018-06-09T06:45:42.936Z,27.30
2018-06-09T06:46:42.854Z,27.20
2018-06-09T06:47:42.825Z,27.20
2018-06-09T06:48:42.780Z,26.10
2018-06-09T06:49:42.745Z,26.90
2018-06-09T06:50:42.716Z,25.60
2018-06-09T06:51:42.764Z,26.00
2018-06-09T06:52:42.681Z,26.30
2018-06-09T06:53:42.628Z,25.20
2018-06-09T06:54:42.609Z,24.90
2018-06-09T06:55:42.602Z,24.50
2018-06-09T06:56:42.596Z,24.60
2018-06-09T06:57:42.525Z,24.70
2018-06-09T06:58:42.490Z,25.30
2018-06-09T06:59:42.440Z,25.00
2018-06-09T07:00:42.419Z,25.00
2018-06-09T07:01:42.414Z,23.20
2018-06-09T07:02:42.349Z,23.70
2018-06-09T07:03:42.343Z,24.50
2018-06-09T07:04:42.299Z,23.80
2018-06-09T07:05:42.278Z,23.40
2018-06-09T07:06:42.265Z,24.00
2018-06-09T07:07:42.201Z,22.40
2018-06-09T07:08:42.174Z,22.50
2018-06-09T07:09:42.154Z,22.50
2018-06-09T07:10:42.120Z,22.30
2018-06-09T07:11:42.084Z,22.60
2018-06-09T07:12:42.073Z,21.30
2018-06-09T07:13:42.024Z,23.20
2018-06-09T07:14:41.994Z,23.20
2018-06-09T07:15:41.970Z,22.60
2018-06-09T07:16:41.942Z,22.60
2018-06-09T07:17:41.946Z,23.70
2018-06-09T07:18:41.881Z,22.20
2018-06-09T07:19:41.864Z,23.70
2018-06-09T07:20:41.878Z,23.00
2018-06-09T07:21:41.829Z,23.50
2018-06-09T07:22:41.790Z,23.20
2018-06-09T07:23:41.753Z,23.80
2018-06-09T07:24:41.715Z,24.20
2018-06-09T07:25:41.679Z,23.30
2018-06-09T07:26:41.660Z,23.50
2018-06-09T07:27:41.655Z,22.30
2018-06-09T07:28:41.601Z,23.00
2018-06-09T07:29:41.567Z,23.60
2018-06-09T07:30:41.537Z,23.40
2018-06-09T07:31:41.499Z,24.00
2018-06-09T07:32:41.505Z,25.10
2018-06-09T07:33:41.434Z,24.20
2018-06-09T07:34:41.411Z,24.70
2018-06-09T07:35:41.378Z,23.90
2018-06-09T07:36:41.388Z,23.50
2018-06-09T07:37:41.323Z,25.00
2018-06-09T07:38:41.292Z,23.50
2018-06-09T07:39:41.251Z,23.80
2018-06-09T07:40:41.233Z,24.30
2018-06-09T07:41:41.221Z,24.00
2018-06-09T07:42:41.174Z,22.90
2018-06-09T07:43:41.126Z,24.40
2018-06-09T07:44:41.098Z,24.40
2018-06-09T07:45:41.091Z,22.80
2018-06-09T07:46:41.060Z,22.30
2018-06-09T07:47:41.014Z,22.60
2018-06-09T07:48:40.995Z,24.10
2018-06-09T07:49:40.949Z,24.50
2018-06-09T07:50:40.926Z,24.20
2018-06-09T07:51:40.924Z,23.90
2018-06-09T07:52:40.881Z,24.00
2018-06-09T07:53:40.836Z,22.90
2018-06-09T07:54:40.812Z,22.90
2018-06-09T07:55:40.773Z,23.00
2018-06-09T07:56:40.764Z,23.40
2018-06-09T07:57:40.703Z,22.10
2018-06-09T07:58:40.666Z,24.20
2018-06-09T07:59:40.654Z,23.80
2018-06-09T08:00:40.617Z,24.20
2018-06-09T08:01:40.612Z,24.40
2018-06-09T08:02:40.556Z,23.00
2018-06-09T08:03:40.517Z,24.20
2018-06-09T08:04:40.496Z,23.80
2018-06-09T08:05:40.453Z,23.90
2018-06-09T08:06:40.447Z,22.20
2018-06-09T08:07:40.412Z,24.20
2018-06-09T08:08:40.366Z,24.20
2018-06-09T08:09:40.336Z,23.70
2018-06-09T08:10:40.307Z,23.90
2018-06-09T08:11:40.292Z,23.60
2018-06-09T08:12:40.243Z,23.70
2018-06-09T08:13:40.231Z,23.10
2018-06-09T08:14:40.186Z,23.00
2018-06-09T08:15:40.172Z,22.90
2018-06-09T08:16:40.115Z,22.60
2018-06-09T08:17:40.090Z,22.70
2018-06-09T08:18:40.055Z,22.20
2018-06-09T08:19:40.033Z,22.50
2018-06-09T08:20:40.032Z,22.70
2018-06-09T08:21:39.971Z,22.00
2018-06-09T08:22:39.946Z,22.30
2018-06-09T08:23:39.910Z,22.50
2018-06-09T08:24:39.871Z,22.10
2018-06-09T08:25:39.838Z,22.50
2018-06-09T08:26:39.834Z,22.30
2018-06-09T08:27:39.786Z,22.10
2018-06-09T08:28:39.751Z,22.10
2018-06-09T08:29:39.717Z,22.20
2018-06-09T08:30:39.721Z,22.00
2018-06-09T08:31:39.670Z,21.60
2018-06-09T08:32:39.633Z,22.20
2018-06-09T08:33:39.612Z,22.00
2018-06-09T08:34:39.579Z,21.80
2018-06-09T08:35:39.566Z,20.90
2018-06-09T08:36:39.508Z,22.80
2018-06-09T08:37:39.478Z,22.20
2018-06-09T08:38:39.441Z,23.40
2018-06-09T08:39:39.424Z,23.40
2018-06-09T08:40:39.395Z,24.50
2018-06-09T08:41:39.385Z,23.60
2018-06-09T08:42:39.331Z,23.40
2018-06-09T08:43:39.291Z,23.20
2018-06-09T08:44:39.265Z,24.20
2018-06-09T08:45:39.257Z,24.00
2018-06-09T08:46:39.240Z,24.10
2018-06-09T08:47:39.182Z,23.00
2018-06-09T08:48:39.150Z,24.20
2018-06-09T08:49:39.121Z,22.90
2018-06-09T08:50:39.086Z,23.10
2018-06-09T08:51:39.096Z,24.10
2018-06-09T08:52:39.037Z,23.20
2018-06-09T08:53:39.030Z,23.20
2018-06-09T08:54:39.032Z,24.20
2018-06-09T08:55:38.937Z,23.50
2018-06-09T08:56:38.903Z,23.50
2018-06-09T08:57:38.913Z,22.90
2018-06-09T08:58:38.838Z,24.10
2018-06-09T08:59:38.827Z,23.60
2018-06-09T09:00:38.788Z,24.60
2018-06-09T09:01:38.752Z,25.40
2018-06-09T09:02:38.763Z,25.30
2018-06-09T09:03:38.698Z,25.20
2018-06-09T09:04:38.662Z,24.80
2018-06-09T09:05:38.676Z,25.20
2018-06-09T09:06:38.723Z,25.50
2018-06-09T09:07:38.604Z,25.70
2018-06-09T09:08:38.550Z,25.50
2018-06-09T09:09:38.522Z,24.50
2018-06-09T09:10:38.483Z,24.10
2018-06-09T09:11:38.455Z,22.50
2018-06-09T09:12:38.455Z,23.60
2018-06-09T09:13:38.406Z,22.70
2018-06-09T09:14:38.374Z,22.50
2018-06-09T09:15:38.346Z,23.30
2018-06-09T09:16:38.306Z,22.80
2018-06-09T09:17:38.349Z,22.60
2018-06-09T09:18:38.252Z,22.30
2018-06-09T09:19:38.213Z,22.20
2018-06-09T09:20:38.179Z,22.90
2018-06-09T09:21:38.179Z,22.70
2018-06-09T09:22:38.162Z,22.70
2018-06-09T09:23:38.137Z,22.90
2018-06-09T09:24:38.087Z,21.90
2018-06-09T09:25:38.080Z,23.90
2018-06-09T09:26:38.034Z,21.50
2018-06-09T09:27:38.028Z,22.60
2018-06-09T09:28:37.972Z,23.00
2018-06-09T09:29:37.937Z,23.30
2018-06-09T09:30:37.929Z,22.10
2018-06-09T09:31:37.887Z,22.50
2018-06-09T09:32:37.887Z,22.50
2018-06-09T09:33:37.846Z,21.70
2018-06-09T09:34:37.804Z,22.20
2018-06-09T09:35:37.822Z,21.30
2018-06-09T09:36:37.757Z,22.80
2018-06-09T09:37:37.736Z,21.10
2018-06-09T09:38:38.167Z,21.30
2018-06-09T09:39:37.673Z,21.30
2018-06-09T09:40:37.649Z,21.00
2018-06-09T09:41:37.613Z,21.60
2018-06-09T09:42:37.622Z,20.90
2018-06-09T09:43:37.594Z,20.90
2018-06-09T09:44:37.573Z,20.90
2018-06-09T09:45:37.523Z,21.10
2018-06-09T09:46:37.495Z,21.00
2018-06-09T09:47:37.465Z,21.20
2018-06-09T09:48:37.473Z,20.50
2018-06-09T09:49:37.428Z,20.70
2018-06-09T09:50:37.390Z,19.90
2018-06-09T09:51:37.353Z,20.50
2018-06-09T09:52:37.328Z,19.20
2018-06-09T09:53:37.305Z,19.90
2018-06-09T09:54:37.313Z,20.70
2018-06-09T09:55:37.261Z,20.40
2018-06-09T09:56:37.236Z,22.00
2018-06-09T09:57:37.210Z,21.60
2018-06-09T09:58:37.201Z,21.20
2018-06-09T09:59:37.168Z,20.90
2018-06-09T10:00:37.127Z,21.00
2018-06-09T10:01:37.107Z,20.30
2018-06-09T10:02:37.184Z,21.30
2018-06-09T10:03:37.075Z,21.70
2018-06-09T10:04:37.052Z,21.50
2018-06-09T10:05:37.002Z,20.90
2018-06-09T10:06:36.975Z,20.40
2018-06-09T10:07:36.986Z,20.90
2018-06-09T10:08:36.960Z,20.80
2018-06-09T10:09:36.904Z,22.10
2018-06-09T10:10:36.872Z,20.70
2018-06-09T10:11:36.859Z,21.80
2018-06-09T10:12:36.816Z,20.60
2018-06-09T10:13:36.813Z,20.30
2018-06-09T10:14:36.779Z,20.50
2018-06-09T10:15:36.759Z,19.50
2018-06-09T10:16:36.729Z,19.10
2018-06-09T10:17:36.694Z,19.70
2018-06-09T10:18:36.693Z,20.00
2018-06-09T10:19:36.635Z,19.90
2018-06-09T10:20:36.608Z,19.10
2018-06-09T10:21:36.593Z,19.60
2018-06-09T10:22:36.566Z,19.80
2018-06-09T10:23:36.556Z,19.90
2018-06-09T10:24:36.520Z,20.50
2018-06-09T10:25:36.487Z,19.70
2018-06-09T10:26:36.461Z,19.90
2018-06-09T10:27:36.441Z,21.00
2018-06-09T10:28:36.440Z,19.90
2018-06-09T10:29:36.391Z,19.60
2018-06-09T10:30:36.369Z,19.10
2018-06-09T10:31:36.358Z,19.70
2018-06-09T10:32:36.315Z,19.10
2018-06-09T10:33:36.313Z,18.70
2018-06-09T10:34:36.263Z,18.30
2018-06-09T10:35:36.248Z,18.80
2018-06-09T10:36:36.222Z,19.20
2018-06-09T10:37:36.260Z,19.50
2018-06-09T10:38:36.219Z,19.30
2018-06-09T10:39:36.152Z,19.90
2018-06-09T10:40:36.129Z,19.50
2018-06-09T10:41:36.113Z,20.20
2018-06-09T10:42:36.100Z,20.40
2018-06-09T10:43:36.045Z,20.10
2018-06-09T10:44:36.036Z,19.60
2018-06-09T10:45:36.007Z,20.30
2018-06-09T10:46:35.982Z,20.30
2018-06-09T10:47:35.972Z,20.10
2018-06-09T10:48:35.924Z,19.00
2018-06-09T10:49:35.901Z,18.60
2018-06-09T10:50:35.885Z,20.60
2018-06-09T10:51:35.868Z,20.10
2018-06-09T10:52:35.859Z,18.70
2018-06-09T10:53:35.816Z,19.80
2018-06-09T10:54:35.785Z,20.20
2018-06-09T10:55:35.771Z,21.00
2018-06-09T10:56:35.747Z,21.30
2018-06-09T10:57:35.785Z,22.20
2018-06-09T10:58:35.697Z,21.40
2018-06-09T10:59:35.662Z,20.30
2018-06-09T11:00:35.647Z,19.80
2018-06-09T11:01:35.647Z,19.80
2018-06-09T11:02:35.626Z,20.40
2018-06-09T11:03:35.612Z,19.30
2018-06-09T11:04:35.565Z,21.60
2018-06-09T11:05:35.528Z,20.30
2018-06-09T11:06:35.526Z,22.00
2018-06-09T11:07:35.479Z,20.10
2018-06-09T11:08:35.502Z,29.50
2018-06-09T11:09:35.460Z,20.10
2018-06-09T11:10:35.430Z,22.90
2018-06-09T11:11:35.401Z,24.40
2018-06-09T11:12:35.375Z,20.70
2018-06-09T11:13:35.367Z,20.10
2018-06-09T11:14:35.323Z,19.60
2018-06-09T11:15:35.314Z,23.10
2018-06-09T11:16:35.287Z,21.10
2018-06-09T11:17:35.252Z,19.60
2018-06-09T11:18:35.252Z,19.10
2018-06-09T11:19:35.211Z,21.10
2018-06-09T11:20:35.196Z,20.30
2018-06-09T11:21:35.167Z,21.10
2018-06-09T11:22:35.141Z,19.30
2018-06-09T11:23:35.114Z,20.00
2018-06-09T11:24:35.129Z,21.00
2018-06-09T11:25:35.048Z,21.70
2018-06-09T11:26:35.055Z,20.70
2018-06-09T11:27:35.023Z,19.60
2018-06-09T11:28:34.991Z,24.20
2018-06-09T11:29:35.007Z,21.70
2018-06-09T11:30:34.938Z,21.40
2018-06-09T11:31:34.931Z,21.40
2018-06-09T11:32:34.881Z,21.40
2018-06-09T11:33:34.882Z,20.70
2018-06-09T11:34:34.863Z,20.60
2018-06-09T11:35:34.821Z,20.60
2018-06-09T11:36:34.816Z,20.60
2018-06-09T11:37:34.783Z,19.30
2018-06-09T11:38:34.752Z,18.80
2018-06-09T11:39:34.722Z,19.80
2018-06-09T11:40:34.725Z,18.90
2018-06-09T11:41:34.690Z,18.40
2018-06-09T11:42:34.660Z,19.10
2018-06-09T11:43:34.626Z,18.90
2018-06-09T11:44:34.598Z,19.50
2018-06-09T11:45:34.611Z,19.20
2018-06-09T11:46:34.564Z,19.50
2018-06-09T11:47:34.564Z,18.60
2018-06-09T11:48:34.537Z,18.00
2018-06-09T11:49:34.510Z,18.00
2018-06-09T11:50:34.501Z,18.10
2018-06-09T11:51:34.455Z,17.30
2018-06-09T11:52:34.420Z,18.70
2018-06-09T11:53:34.393Z,18.70
2018-06-09T11:54:34.383Z,17.90
2018-06-09T11:55:34.397Z,17.00
2018-06-09T11:56:34.375Z,18.30
2018-06-09T11:57:34.291Z,18.80
2018-06-09T11:58:34.318Z,19.30
2018-06-09T11:59:34.262Z,18.70
2018-06-09T12:00:34.257Z,17.70
2018-06-09T12:01:34.236Z,17.30
2018-06-09T12:02:34.214Z,17.20
2018-06-09T12:03:34.185Z,18.10
2018-06-09T12:04:34.161Z,18.20
2018-06-09T12:05:34.155Z,19.10
2018-06-09T12:06:34.152Z,17.80
2018-06-09T12:07:34.092Z,18.20
2018-06-09T12:08:34.092Z,17.10
2018-06-09T12:09:34.022Z,18.10
2018-06-09T12:10:33.989Z,17.50
2018-06-09T12:11:33.995Z,18.00
2018-06-09T12:12:33.931Z,18.00
2018-06-09T12:13:33.959Z,16.80
2018-06-09T12:14:33.893Z,17.30
2018-06-09T12:15:33.866Z,17.40
2018-06-09T12:16:33.866Z,17.90
2018-06-09T12:17:33.838Z,18.50
2018-06-09T12:18:33.824Z,17.10
2018-06-09T12:19:33.784Z,18.00
2018-06-09T12:20:33.751Z,17.40
2018-06-09T12:21:33.755Z,18.30
2018-06-09T12:22:33.820Z,16.70
2018-06-09T12:23:33.690Z,17.00
2018-06-09T12:24:33.657Z,16.50
2018-06-09T12:25:33.628Z,17.30
2018-06-09T12:26:33.650Z,18.10
2018-06-09T12:27:33.599Z,17.40
2018-06-09T12:28:33.565Z,16.40
2018-06-09T12:29:33.635Z,16.10
2018-06-09T12:30:33.494Z,15.80
2018-06-09T12:31:33.505Z,18.00
2018-06-09T12:32:33.548Z,17.50
2018-06-09T12:33:33.506Z,17.40
2018-06-09T12:34:33.516Z,17.60
2018-06-09T12:35:33.385Z,16.50
2018-06-09T12:36:33.375Z,16.20
2018-06-09T12:37:33.349Z,16.80
2018-06-09T12:38:33.314Z,16.40
2018-06-09T12:39:33.336Z,18.50
2018-06-09T12:40:33.268Z,18.90
2018-06-09T12:41:33.328Z,16.70
2018-06-09T12:42:33.240Z,15.70
2018-06-09T12:43:33.234Z,16.70